Overton RPC :: 150-A

liberation: 2021-09-04  07:00     latitude: 34.254868     longitude: -85.871559 53 birds
# LOFT PRING MILES ARRIVAL SPEED ToWin
1 VALHALLA LOFTS IF21-E-1497 152.211 2021-09-04 10:36:23.842 1237.958 00:00:00
2 VALHALLA LOFTS IF21-VALH-0166 152.211 2021-09-04 10:38:29.003 1226.139 00:02:05
3 VALHALLA LOFTS IF21-VALH-0146 152.211 2021-09-04 10:38:37.581 1225.337 00:02:14
4 VALHALLA LOFTS IF21-E-1448 152.211 2021-09-04 10:39:01.079 1223.146 00:02:37
5 VALHALLA LOFTS IF21-E-1443 152.211 2021-09-04 10:45:14.912 1189.313 00:08:51
6 VALHALLA LOFTS IF21-VALH-0175 152.211 2021-09-04 10:45:15.902 1189.225 00:08:52
7 VALHALLA LOFTS AU21-ARPU-9000 152.211 2021-09-04 10:45:17.813 1189.057 00:08:54
8 VALHALLA LOFTS IF21-E-1446 152.211 2021-09-04 10:45:22.047 1188.685 00:08:58
9 VALHALLA LOFTS IF21-VALH-0114 152.211 2021-09-04 10:45:22.417 1188.653 00:08:59
10 VALHALLA LOFTS AU21-ARPU-8989 152.211 2021-09-04 10:45:25.585 1188.374 00:09:02
11 VALHALLA LOFTS IF21-E-1499 152.211 2021-09-04 10:45:26.345 1188.307 00:09:03
12 VALHALLA LOFTS IF21-VALH-0172 152.211 2021-09-04 10:45:31.037 1187.895 00:09:07
13 VALHALLA LOFTS IF21-VALH-0112 152.211 2021-09-04 10:45:42.332 1186.905 00:09:18
14 VALHALLA LOFTS IF21-VALH-0107 152.211 2021-09-04 10:46:26.069 1183.084 00:10:02
15 VALHALLA LOFTS AU21-POP-0537 152.211 2021-09-04 10:46:57.502 1180.353 00:10:34
16 VALHALLA LOFTS IF21-E-1414 152.211 2021-09-04 10:47:29.043 1177.625 00:11:05
17 VALHALLA LOFTS IF21-VALH-0196 152.211 2021-09-04 10:48:04.996 1174.531 00:11:41
18 VALHALLA LOFTS IF21-E-1598 152.211 2021-09-04 10:54:32.352 1142.201 00:18:09
19 VALHALLA LOFTS IF21-E-1496 152.211 2021-09-04 10:54:32.463 1142.192 00:18:09
20 VALHALLA LOFTS IF21-VALH-0123 152.211 2021-09-04 10:54:39.810 1141.596 00:18:16
21 PHILBETTER LOFT IF21-E-1552 147.897 2021-09-04 10:57:08.095 1097.685 00:26:52
22 VALHALLA LOFTS IF21-VALH-0108 152.211 2021-09-04 11:37:10.970 966.477 01:00:47
23 LET IT GO LOFT IF21-E-1405 155.558 2021-09-04 11:46:39.168 955.103 01:05:30
24 PHILBETTER LOFT IF21-E-1430 147.897 2021-09-04 11:33:29.295 951.776 01:03:13
25 VALHALLA LOFTS IF21-VALH-0118 152.211 2021-09-04 11:52:36.282 915.539 01:16:12
26 VALHALLA LOFTS IF21-E-1500 152.211 2021-09-04 11:52:37.243 915.489 01:16:13
27 VALHALLA LOFTS IF21-VALH-0145 152.211 2021-09-04 11:52:38.730 915.411 01:16:15
28 VALHALLA LOFTS IF21-VALH-0103 152.211 2021-09-04 12:18:53.551 840.066 01:42:30
29 PHILBETTER LOFT IF21-E-1553 147.897 2021-09-04 12:24:37.033 801.866 01:54:21
30 VALHALLA LOFTS IF21-VALH-0128 152.211 2021-09-04 12:42:29.366 782.187 02:06:06
31 PHILBETTER LOFT IF21-E-1429 147.897 2021-09-04 12:39:01.535 767.787 02:08:46
32 VALHALLA LOFTS IF21-E-1498 152.211 2021-09-04 13:20:37.296 703.825 02:44:13
33 LET IT GO LOFT IF21-E-1402 155.558 2021-09-04 13:39:19.026 685.628 02:58:10
34 VALHALLA LOFTS IF21-VALH-0116 152.211 2021-09-04 13:31:00.440 685.130 02:54:37
35 PHILBETTER LOFT IF21-E-1558 147.897 2021-09-04 13:54:57.538 627.290 03:24:42
36 VALHALLA LOFTS IF21-VALH-0186 152.211 2021-09-04 15:55:03.984 500.669 05:18:40
37 LET IT GO LOFT IF21-E-1407 155.558 2021-09-04 16:26:17.076 483.472 05:45:08
38 BIG MOMMA'S LOFT IF21-E-1396 133.642 2021-09-04 16:11:54.295 426.178 06:01:54
39 PHILBETTER LOFT AU21-ARPU-8971 147.897 2021-09-04 17:52:30.110 398.925 07:22:14
40 LET IT GO LOFT IF21-ORP-0442 155.558 2021-09-05 08:34:24.769 297.640 11:38:41
BIG MOMMA'S LOFT IF21-E-1332 0 0000-00-00 00:00:00.000 0.000 00:00:00
BIG MOMMA'S LOFT IF21-E-1342 0 0000-00-00 00:00:00.000 0.000 00:00:00
BIG MOMMA'S LOFT IF21-E-1344 0 0000-00-00 00:00:00.000 0.000 00:00:00
BIG MOMMA'S LOFT IF21-E-1354 0 0000-00-00 00:00:00.000 0.000 00:00:00
BIG MOMMA'S LOFT IF21-E-1384 0 0000-00-00 00:00:00.000 0.000 00:00:00
LET IT GO LOFT AU21-ARPU-8956 0 0000-00-00 00:00:00.000 0.000 00:00:00
LET IT GO LOFT IF21-ORP-0454 0 0000-00-00 00:00:00.000 0.000 00:00:00
LET IT GO LOFT IF21-ORP-0458 0 0000-00-00 00:00:00.000 0.000 00:00:00
PHILBETTER LOFT IF21-E-1551 0 0000-00-00 00:00:00.000 0.000 00:00:00
VALHALLA LOFTS IF21-VALH-0105 0 0000-00-00 00:00:00.000 0.000 00:00:00
VALHALLA LOFTS IF21-VALH-0110 0 0000-00-00 00:00:00.000 0.000 00:00:00
VALHALLA LOFTS IF21-VALH-0176 0 0000-00-00 00:00:00.000 0.000 00:00:00
VALHALLA LOFTS IF21-VALH-0184 0 0000-00-00 00:00:00.000 0.000 00:00:00